Time;durP1;ratioP1;P1;durP2;ratioP2;P2;SDS_P1;SDS_P2;PMS_P1;PMS_P2;Temp;Humidity;BMP_temperature;BMP_pressure;BME280_temperature;BME280_humidity;BME280_pressure;Samples;Min_cycle;Max_cycle;Signal;HPM_P1;HPM_P2
2022/05/06 00:02:23;;;;;;;3.05;1.25;;;16.10;96.80;;;;;;5050668;28;20111;-69
2022/05/06 00:04:50;;;;;;;4.93;1.00;;;16.20;96.60;;;;;;5050944;28;20032;-68
2022/05/06 00:07:17;;;;;;;4.70;1.10;;;16.40;95.90;;;;;;5051248;28;20025;-68
2022/05/06 00:09:44;;;;;;;3.17;1.10;;;16.50;95.50;;;;;;5033962;28;20021;-69
2022/05/06 00:12:18;;;;;;;5.35;1.75;;;16.70;95.20;;;;;;5032348;28;20032;-69
2022/05/06 00:14:46;;;;;;;5.88;1.40;;;16.90;94.30;;;;;;5035814;28;20029;-70
2022/05/06 00:17:14;;;;;;;4.00;1.00;;;16.90;94.40;;;;;;5051094;28;20546;-68
2022/05/06 00:19:45;;;;;;;3.83;1.10;;;17.00;94.60;;;;;;5050745;28;20309;-68
2022/05/06 00:22:12;;;;;;;2.38;0.82;;;17.10;93.50;;;;;;5050156;28;20013;-68
2022/05/06 00:24:40;;;;;;;1.77;1.08;;;17.30;93.30;;;;;;5050924;28;20015;-68
2022/05/06 00:27:07;;;;;;;6.43;1.77;;;17.40;93.30;;;;;;5047217;28;20019;-69
2022/05/06 00:29:38;;;;;;;3.67;1.40;;;17.30;91.60;;;;;;5050015;28;20386;-69
2022/05/06 00:32:06;;;;;;;4.60;1.10;;;17.40;91.90;;;;;;5050440;28;20013;-68
2022/05/06 00:34:33;;;;;;;4.47;1.25;;;17.30;92.20;;;;;;5044966;28;20019;-68
2022/05/06 00:37:00;;;;;;;4.53;1.15;;;17.40;91.90;;;;;;5050088;28;20116;-68
2022/05/06 00:39:27;;;;;;;6.07;1.20;;;17.40;91.10;;;;;;5050515;28;20021;-68
2022/05/06 00:41:55;;;;;;;5.30;0.90;;;17.60;91.10;;;;;;5048696;28;20149;-69
2022/05/06 00:44:25;;;;;;;5.30;1.00;;;17.70;90.00;;;;;;5049747;28;20086;-69
2022/05/06 00:46:53;;;;;;;2.15;0.70;;;17.70;90.30;;;;;;5049633;28;20438;-67
2022/05/06 00:49:21;;;;;;;3.15;0.90;;;17.80;89.10;;;;;;5050296;28;20040;-69
2022/05/06 00:51:51;;;;;;;3.58;0.95;;;18.00;87.20;;;;;;5049876;28;20021;-69
2022/05/06 00:54:21;;;;;;;2.70;1.00;;;18.00;86.30;;;;;;5050157;28;20021;-69
2022/05/06 00:56:49;;;;;;;3.70;0.82;;;17.90;86.80;;;;;;5050035;28;20031;-69
2022/05/06 00:59:16;;;;;;;3.65;1.25;;;18.10;85.30;;;;;;4698195;28;9999648;-69
2022/05/06 01:01:43;;;;;;;6.90;1.52;;;18.40;87.00;;;;;;5046554;28;20025;-69
2022/05/06 01:04:11;;;;;;;4.60;1.40;;;18.30;87.10;;;;;;5046560;28;20482;-69
2022/05/06 01:06:38;;;;;;;2.35;0.73;;;18.40;85.80;;;;;;5046121;28;20201;-68
2022/05/06 01:09:05;;;;;;;1.98;0.70;;;18.50;84.50;;;;;;5046588;28;20064;-69
2022/05/06 01:11:33;;;;;;;2.92;0.95;;;18.40;85.10;;;;;;5046438;28;20143;-69
2022/05/06 01:14:00;;;;;;;1.42;0.90;;;18.50;84.80;;;;;;5045941;28;20028;-69
2022/05/06 01:16:33;;;;;;;3.47;1.13;;;18.60;84.00;;;;;;5033785;28;21024;-69
2022/05/06 01:19:01;;;;;;;2.92;1.10;;;18.80;82.90;;;;;;5045652;28;20534;-69
2022/05/06 01:21:32;;;;;;;4.60;1.38;;;18.70;80.60;;;;;;5046487;28;20025;-68
2022/05/06 01:23:59;;;;;;;1.92;0.80;;;18.80;83.40;;;;;;5046286;28;20494;-68
2022/05/06 01:26:49;;;;;;;2.97;1.13;;;19.10;81.40;;;;;;5046524;28;20025;-68
2022/05/06 01:29:17;;;;;;;2.45;0.80;;;19.30;80.30;;;;;;5041570;28;20048;-68
2022/05/06 01:31:44;;;;;;;4.72;1.00;;;19.30;82.60;;;;;;5043372;28;20028;-68
2022/05/06 01:34:14;;;;;;;4.90;1.55;;;19.40;83.40;;;;;;5045590;28;20021;-68
2022/05/06 01:36:42;;;;;;;3.80;1.00;;;19.40;81.90;;;;;;5045804;28;20049;-69
2022/05/06 01:39:12;;;;;;;5.18;1.02;;;19.70;83.80;;;;;;5045219;28;20463;-67
2022/05/06 01:41:40;;;;;;;4.35;1.52;;;20.00;81.40;;;;;;5038918;28;20047;-67
2022/05/06 01:44:10;;;;;;;1.15;0.68;;;20.10;80.10;;;;;;5044905;28;20029;-68
2022/05/06 01:46:38;;;;;;;6.28;1.65;;;20.10;79.60;;;;;;5045490;28;20040;-67
2022/05/06 01:49:06;;;;;;;2.78;1.50;;;20.10;77.40;;;;;;5045469;28;20067;-70
2022/05/06 01:51:35;;;;;;;4.75;1.27;;;20.00;75.90;;;;;;5045277;28;20074;-68
2022/05/06 01:54:02;;;;;;;6.70;1.42;;;19.90;77.40;;;;;;5045078;28;20028;-69
2022/05/06 01:56:29;;;;;;;4.22;1.33;;;20.10;74.80;;;;;;5040999;28;20104;-67
2022/05/06 01:58:56;;;;;;;3.38;1.02;;;20.10;74.20;;;;;;5038279;28;20032;-66
2022/05/06 02:01:23;;;;;;;3.00;1.05;;;20.00;74.20;;;;;;5043533;28;20608;-67
2022/05/06 02:06:35;;;;;;;1.80;0.50;;;20.20;76.60;;;;;;5041209;28;20509;-66
2022/05/06 02:09:02;;;;;;;2.67;1.00;;;20.40;72.30;;;;;;5045101;28;20059;-66
2022/05/06 02:11:29;;;;;;;1.65;1.00;;;20.40;74.40;;;;;;5042615;28;20025;-66
2022/05/06 02:13:56;;;;;;;2.92;0.95;;;20.60;73.60;;;;;;5043803;28;20028;-66
2022/05/06 02:16:23;;;;;;;3.47;0.70;;;20.60;74.60;;;;;;5044210;28;20024;-66
2022/05/06 02:18:51;;;;;;;4.50;0.80;;;20.90;74.90;;;;;;5044161;28;20238;-67
2022/05/06 02:21:18;;;;;;;1.27;0.57;;;21.00;75.10;;;;;;5043415;28;20056;-67
2022/05/06 02:23:44;;;;;;;3.20;1.00;;;21.30;72.30;;;;;;5043898;28;20055;-66
2022/05/06 02:26:11;;;;;;;3.08;1.10;;;21.40;73.10;;;;;;5048232;28;20357;-66
2022/05/06 02:28:38;;;;;;;1.92;1.10;;;21.30;74.00;;;;;;5048608;28;20769;-66
2022/05/06 02:33:50;;;;;;;1.20;0.73;;;21.40;71.90;;;;;;5048463;28;20024;-66
2022/05/06 02:36:17;;;;;;;2.10;0.77;;;21.40;72.00;;;;;;5049115;28;20075;-66
2022/05/06 02:38:44;;;;;;;2.50;0.80;;;21.50;72.20;;;;;;5048790;28;20049;-67
2022/05/06 02:41:13;;;;;;;3.95;1.02;;;21.40;71.30;;;;;;5049187;28;20028;-67
2022/05/06 02:43:40;;;;;;;1.67;1.20;;;21.60;72.10;;;;;;5048790;28;20043;-67
2022/05/06 02:46:07;;;;;;;2.55;0.93;;;21.80;70.50;;;;;;5047973;28;20731;-66
2022/05/06 02:48:34;;;;;;;3.70;1.10;;;21.80;69.20;;;;;;5049050;28;20036;-66
2022/05/06 02:51:02;;;;;;;1.48;0.90;;;21.70;69.70;;;;;;5048894;28;20064;-66
2022/05/06 02:53:28;;;;;;;2.80;0.70;;;21.70;68.10;;;;;;5047875;28;20036;-66
2022/05/06 02:55:55;;;;;;;3.03;0.82;;;21.70;67.00;;;;;;5048671;28;20013;-67
2022/05/06 02:58:22;;;;;;;1.30;1.02;;;21.70;67.40;;;;;;5045793;28;20059;-67
2022/05/06 03:00:49;;;;;;;4.95;0.93;;;21.80;69.20;;;;;;5048362;28;20501;-67
2022/05/06 03:03:16;;;;;;;1.95;0.95;;;21.70;68.80;;;;;;5047716;28;20021;-65
2022/05/06 03:05:43;;;;;;;3.45;1.23;;;21.80;68.70;;;;;;5048094;28;20403;-67
2022/05/06 03:08:10;;;;;;;2.63;1.10;;;21.80;66.80;;;;;;5048277;28;20506;-66
2022/05/06 03:10:37;;;;;;;2.70;0.90;;;21.80;67.30;;;;;;5047487;28;20495;-66
2022/05/06 03:13:04;;;;;;;4.30;1.00;;;21.90;66.40;;;;;;5047983;28;20020;-66
2022/05/06 03:15:31;;;;;;;2.88;0.90;;;21.70;68.30;;;;;;5047849;28;20319;-66
2022/05/06 03:17:59;;;;;;;2.85;1.10;;;21.70;68.30;;;;;;5048803;28;20413;-67
2022/05/06 03:20:25;;;;;;;4.50;0.90;;;21.90;69.50;;;;;;5047314;28;20037;-67
2022/05/06 03:22:53;;;;;;;2.90;1.00;;;22.10;67.80;;;;;;5047433;28;20410;-67
2022/05/06 03:25:21;;;;;;;3.88;1.88;;;22.20;67.60;;;;;;5047686;28;20113;-67
2022/05/06 03:28:01;;;;;;;7.53;1.90;;;22.30;66.90;;;;;;5046957;28;20090;-67
2022/05/06 03:30:30;;;;;;;2.60;1.00;;;22.00;66.10;;;;;;5046487;28;20190;-66
2022/05/06 03:33:01;;;;;;;2.20;0.90;;;21.80;67.20;;;;;;5044426;28;20017;-67
2022/05/06 03:35:28;;;;;;;2.63;1.08;;;22.00;66.70;;;;;;5045684;28;20025;-67
2022/05/06 03:37:56;;;;;;;3.50;1.75;;;22.10;68.50;;;;;;5048013;28;20044;-67
2022/05/06 03:40:23;;;;;;;2.35;0.82;;;22.20;68.50;;;;;;5046570;28;20032;-67
2022/05/06 03:42:50;;;;;;;2.63;1.40;;;22.30;65.40;;;;;;5046694;28;20029;-67
2022/05/06 03:45:17;;;;;;;1.35;0.90;;;22.20;66.40;;;;;;5047195;28;20390;-66
2022/05/06 03:47:44;;;;;;;1.20;0.65;;;22.20;68.50;;;;;;5046794;28;20124;-67
2022/05/06 03:52:56;;;;;;;2.08;0.85;;;22.30;68.10;;;;;;5044196;28;20525;-66
2022/05/06 03:55:24;;;;;;;1.20;0.75;;;22.60;67.80;;;;;;5043459;28;20048;-67
2022/05/06 03:57:50;;;;;;;1.58;0.80;;;22.60;65.60;;;;;;5046434;28;20029;-67
2022/05/06 04:00:19;;;;;;;2.17;1.48;;;22.60;63.30;;;;;;5047509;28;20036;-66
2022/05/06 04:02:47;;;;;;;3.90;1.45;;;22.30;66.30;;;;;;5046623;28;20024;-67
2022/05/06 04:05:14;;;;;;;4.30;2.85;;;22.30;67.30;;;;;;5047332;28;20438;-66
2022/05/06 04:07:41;;;;;;;2.65;1.65;;;22.50;67.00;;;;;;5046411;28;20082;-65
2022/05/06 04:10:08;;;;;;;2.05;1.02;;;22.60;65.30;;;;;;5046791;28;20021;-67
2022/05/06 04:12:36;;;;;;;6.05;0.93;;;22.50;64.40;;;;;;5043449;28;20123;-67
2022/05/06 04:15:04;;;;;;;2.85;1.08;;;22.40;66.20;;;;;;5047344;28;20070;-66
2022/05/06 04:17:31;;;;;;;1.42;0.70;;;22.40;64.70;;;;;;5045864;28;20025;-66
2022/05/06 04:25:29;;;;;;;3.25;1.00;;;22.40;62.50;;;;;;5045542;28;20028;-67
2022/05/06 04:27:55;;;;;;;3.78;0.70;;;22.50;63.90;;;;;;5043073;28;20021;-67
2022/05/06 04:30:22;;;;;;;2.45;0.80;;;22.70;65.10;;;;;;5045922;28;20021;-66
2022/05/06 04:32:49;;;;;;;3.83;0.88;;;22.50;63.10;;;;;;5045420;28;20029;-67
2022/05/06 04:35:16;;;;;;;2.53;1.13;;;22.20;60.90;;;;;;5046549;28;20472;-67
2022/05/06 04:37:43;;;;;;;2.25;1.27;;;22.10;62.80;;;;;;5046610;28;20041;-68
2022/05/06 04:40:12;;;;;;;1.00;0.70;;;22.20;62.80;;;;;;5046443;28;20023;-68
2022/05/06 04:42:39;;;;;;;1.13;0.70;;;22.20;57.30;;;;;;5041059;28;20388;-68
2022/05/06 04:45:07;;;;;;;2.08;0.80;;;22.20;60.40;;;;;;5045764;28;20104;-67
2022/05/06 04:47:34;;;;;;;1.60;0.80;;;22.20;60.10;;;;;;5044756;28;20021;-68
2022/05/06 04:50:02;;;;;;;1.33;0.68;;;22.00;62.60;;;;;;5045825;28;20020;-67
2022/05/06 04:52:29;;;;;;;0.75;0.45;;;22.00;57.50;;;;;;5045615;28;20032;-67
2022/05/06 04:54:55;;;;;;;0.70;0.40;;;21.80;57.60;;;;;;5045999;28;20106;-67
2022/05/06 04:57:22;;;;;;;1.17;0.60;;;21.80;58.20;;;;;;5045018;28;20106;-67
2022/05/06 04:59:49;;;;;;;2.80;0.88;;;21.90;59.10;;;;;;5046465;28;20013;-67
2022/05/06 05:02:17;;;;;;;1.75;0.57;;;21.90;60.10;;;;;;5046713;28;20017;-65
2022/05/06 05:04:45;;;;;;;1.23;0.60;;;21.90;59.70;;;;;;5046662;28;20033;-70
2022/05/06 05:07:12;;;;;;;0.63;0.43;;;21.80;58.70;;;;;;5045700;28;20029;-67
2022/05/06 05:09:39;;;;;;;2.47;0.77;;;21.60;58.40;;;;;;5043283;28;20051;-64
2022/05/06 05:12:07;;;;;;;2.22;0.50;;;21.60;60.90;;;;;;5041416;28;20751;-67
2022/05/06 05:14:37;;;;;;;3.72;0.98;;;21.80;59.20;;;;;;5025710;28;20040;-65
2022/05/06 05:17:04;;;;;;;2.03;0.75;;;21.90;62.40;;;;;;5046141;28;20017;-66
2022/05/06 05:19:31;;;;;;;2.22;0.70;;;22.00;58.80;;;;;;5042379;28;20047;-64
2022/05/06 05:21:58;;;;;;;1.95;0.70;;;22.10;60.30;;;;;;5044192;28;20033;-65
2022/05/06 05:24:25;;;;;;;2.97;1.15;;;22.00;58.70;;;;;;5030647;28;20025;-68
2022/05/06 05:26:54;;;;;;;1.83;0.70;;;22.10;59.70;;;;;;5044601;28;20037;-65
2022/05/06 05:29:21;;;;;;;1.42;0.55;;;22.00;59.70;;;;;;5044333;28;20037;-66
2022/05/06 05:31:48;;;;;;;2.88;0.80;;;22.00;59.00;;;;;;5042136;28;21041;-64
2022/05/06 05:34:15;;;;;;;1.48;0.70;;;21.80;58.80;;;;;;5041168;28;20029;-64
2022/05/06 05:36:42;;;;;;;1.67;0.60;;;21.80;59.90;;;;;;5044789;28;20036;-68
2022/05/06 05:39:09;;;;;;;2.08;0.80;;;22.00;59.00;;;;;;5045149;28;20036;-65
2022/05/06 05:41:36;;;;;;;4.60;0.80;;;22.10;60.00;;;;;;5045075;28;20053;-65
2022/05/06 05:49:47;;;;;;;0.88;0.65;;;21.90;60.20;;;;;;4983862;28;20057;-65
2022/05/06 05:52:14;;;;;;;1.65;0.57;;;21.90;59.00;;;;;;4983865;28;20038;-66
2022/05/06 05:54:41;;;;;;;1.05;0.60;;;22.00;60.70;;;;;;4983717;28;20120;-66
2022/05/06 05:57:08;;;;;;;0.90;0.60;;;22.00;59.10;;;;;;4981519;28;20038;-67
2022/05/06 05:59:35;;;;;;;0.63;0.40;;;21.80;60.40;;;;;;4983291;28;20038;-65
2022/05/06 06:02:03;;;;;;;1.55;0.55;;;21.50;60.20;;;;;;4988807;28;20409;-66
2022/05/06 06:04:30;;;;;;;2.80;0.88;;;21.20;60.80;;;;;;4983177;28;20042;-67
2022/05/06 06:06:57;;;;;;;1.15;0.88;;;21.20;62.60;;;;;;4986011;28;20046;-67
2022/05/06 06:09:24;;;;;;;0.88;0.50;;;21.70;60.90;;;;;;4987210;28;20050;-65
2022/05/06 06:11:51;;;;;;;2.22;0.77;;;22.00;61.30;;;;;;4984913;28;20057;-67
2022/05/06 06:14:18;;;;;;;2.30;0.60;;;22.30;61.30;;;;;;4982054;28;20034;-66
2022/05/06 06:16:46;;;;;;;1.88;0.70;;;22.70;60.20;;;;;;4960796;28;20125;-67
2022/05/06 06:19:13;;;;;;;1.55;0.57;;;22.90;59.50;;;;;;4976843;28;20030;-66
2022/05/06 06:21:40;;;;;;;0.95;0.55;;;22.70;61.90;;;;;;4985904;28;20027;-71
2022/05/06 06:24:07;;;;;;;2.58;0.70;;;22.50;59.90;;;;;;5039408;28;20044;-66
2022/05/06 06:26:35;;;;;;;1.98;0.65;;;22.10;60.50;;;;;;5038698;28;20037;-75
2022/05/06 06:29:05;;;;;;;4.10;0.95;;;22.10;61.50;;;;;;5039890;28;20067;-66
2022/05/06 06:31:33;;;;;;;2.35;0.80;;;22.10;60.90;;;;;;5038564;28;20445;-68
2022/05/06 06:34:00;;;;;;;3.92;0.88;;;21.90;61.20;;;;;;5036442;28;20430;-72
2022/05/06 06:36:28;;;;;;;1.50;0.77;;;22.00;61.50;;;;;;5038341;28;20032;-66
2022/05/06 06:38:55;;;;;;;2.42;0.85;;;21.70;60.50;;;;;;5039679;28;20051;-71
2022/05/06 06:41:22;;;;;;;2.85;0.82;;;21.40;61.80;;;;;;5037682;28;20488;-71
2022/05/06 06:43:50;;;;;;;2.35;0.50;;;21.20;62.00;;;;;;5040405;28;20029;-74
2022/05/06 06:46:17;;;;;;;1.83;0.98;;;21.10;62.70;;;;;;5037291;28;20114;-68
2022/05/06 06:48:45;;;;;;;4.38;0.90;;;21.10;63.00;;;;;;5038092;28;20036;-67
2022/05/06 06:51:12;;;;;;;2.40;0.90;;;21.00;62.70;;;;;;5038168;28;20024;-73
2022/05/06 06:53:39;;;;;;;2.92;1.05;;;20.80;63.50;;;;;;5040005;28;20021;-68
2022/05/06 06:56:06;;;;;;;2.28;0.75;;;20.60;64.00;;;;;;5036434;28;20067;-72
2022/05/06 06:58:33;;;;;;;2.25;0.70;;;20.40;64.10;;;;;;5038177;28;20029;-72
2022/05/06 07:01:00;;;;;;;1.95;0.80;;;20.00;65.50;;;;;;5040359;28;20083;-73
2022/05/06 07:03:27;;;;;;;3.05;1.10;;;19.70;65.10;;;;;;5041038;28;20036;-75
2022/05/06 07:14:11;;;;;;;4.10;0.82;;;17.70;69.70;;;;;;5004434;28;20033;-74
2022/05/06 07:16:39;;;;;;;3.00;1.02;;;17.30;71.20;;;;;;5003383;28;20038;-68
2022/05/06 07:19:06;;;;;;;3.03;1.23;;;17.00;73.30;;;;;;4987287;28;20082;-71
2022/05/06 07:21:33;;;;;;;2.15;1.33;;;16.70;72.60;;;;;;5001133;28;20078;-74
2022/05/06 07:24:00;;;;;;;4.90;1.80;;;16.60;72.70;;;;;;5003897;28;20032;-73
2022/05/06 07:26:27;;;;;;;5.30;2.63;;;16.50;73.40;;;;;;5004950;28;20068;-68
2022/05/06 07:28:54;;;;;;;5.65;3.53;;;16.30;74.60;;;;;;5002842;28;20113;-68
2022/05/06 07:31:21;;;;;;;5.35;2.83;;;16.10;74.50;;;;;;5006225;28;20026;-75
2022/05/06 07:33:49;;;;;;;3.50;2.08;;;15.80;76.90;;;;;;5000126;28;20045;-68
2022/05/06 07:36:17;;;;;;;2.13;1.40;;;15.50;78.30;;;;;;5004150;28;20030;-67
2022/05/06 07:38:44;;;;;;;2.85;1.30;;;15.40;78.60;;;;;;5002774;28;20461;-68
2022/05/06 07:41:11;;;;;;;1.95;1.02;;;15.30;79.00;;;;;;5002593;28;20034;-69
2022/05/06 07:43:38;;;;;;;2.50;1.08;;;15.20;80.90;;;;;;5002323;28;20038;-64
2022/05/06 07:46:09;;;;;;;5.22;1.30;;;15.10;79.50;;;;;;5000369;28;20125;-68
2022/05/06 07:48:37;;;;;;;2.53;1.17;;;15.10;78.40;;;;;;5022674;28;20412;-64
2022/05/06 07:51:04;;;;;;;2.72;1.00;;;15.30;77.50;;;;;;5043902;28;20140;-67
2022/05/06 07:53:32;;;;;;;4.78;1.30;;;15.60;76.60;;;;;;5044458;28;20473;-66
2022/05/06 07:55:59;;;;;;;5.07;1.00;;;15.70;76.50;;;;;;5042962;28;20021;-67
2022/05/06 07:58:26;;;;;;;4.00;1.10;;;15.70;76.50;;;;;;5040894;28;20115;-67
2022/05/06 08:00:53;;;;;;;2.85;1.45;;;15.70;76.60;;;;;;5042170;28;20125;-67
2022/05/06 08:06:05;;;;;;;2.90;1.20;;;15.80;76.20;;;;;;5043556;28;20094;-67
2022/05/06 08:08:44;;;;;;;1.88;0.90;;;15.90;76.10;;;;;;5045030;28;20021;-65
2022/05/06 08:11:11;;;;;;;4.38;1.15;;;15.80;76.20;;;;;;5024749;28;20025;-64
2022/05/06 08:13:38;;;;;;;1.48;0.70;;;15.90;75.60;;;;;;5043661;28;20025;-65
2022/05/06 08:16:05;;;;;;;2.28;0.90;;;15.90;76.20;;;;;;5042104;28;20446;-64
2022/05/06 08:18:32;;;;;;;1.88;1.02;;;15.80;76.10;;;;;;5041809;28;20463;-67
2022/05/06 08:20:59;;;;;;;3.65;1.23;;;15.90;76.20;;;;;;5043528;28;20025;-64
2022/05/06 08:23:26;;;;;;;3.60;1.38;;;15.80;75.90;;;;;;5040607;28;20135;-69
2022/05/06 08:25:54;;;;;;;3.38;1.30;;;15.60;77.00;;;;;;5041827;28;20025;-66
2022/05/06 08:28:22;;;;;;;3.83;1.13;;;15.50;77.50;;;;;;5042662;28;20029;-71
2022/05/06 08:30:50;;;;;;;3.67;1.48;;;15.50;77.50;;;;;;5043227;28;20053;-67
2022/05/06 08:33:17;;;;;;;3.28;1.23;;;15.40;78.40;;;;;;5041056;28;20021;-64
2022/05/06 08:35:44;;;;;;;4.25;1.23;;;15.20;79.60;;;;;;5041920;28;20103;-65
2022/05/06 08:38:14;;;;;;;3.00;0.90;;;15.20;80.20;;;;;;5040829;28;20048;-67
2022/05/06 08:40:41;;;;;;;1.13;0.80;;;15.10;80.80;;;;;;5040107;28;20021;-66
2022/05/06 08:43:09;;;;;;;4.63;1.33;;;15.00;81.70;;;;;;5036387;28;20033;-66
2022/05/06 08:51:12;;;;;;;7.28;1.60;;;14.80;83.70;;;;;;5039077;28;20051;-67
2022/05/06 08:53:40;;;;;;;4.95;1.38;;;14.80;83.50;;;;;;5042090;28;20029;-67
2022/05/06 08:56:08;;;;;;;5.10;1.38;;;14.60;83.70;;;;;;5041716;28;20258;-68
2022/05/06 08:58:37;;;;;;;3.33;1.30;;;14.50;84.60;;;;;;5040328;28;20033;-67
2022/05/06 09:01:12;;;;;;;3.33;1.23;;;14.30;85.10;;;;;;5040189;28;20033;-74
2022/05/06 09:03:40;;;;;;;3.88;1.40;;;14.10;86.20;;;;;;5041074;28;20032;-68
2022/05/06 09:06:25;;;;;;;1.88;1.00;;;14.00;87.10;;;;;;5042131;28;20747;-68
2022/05/06 09:08:53;;;;;;;3.20;1.13;;;13.80;90.60;;;;;;5042421;28;20902;-67
2022/05/06 09:14:12;;;;;;;3.00;1.27;;;14.10;90.50;;;;;;5040175;28;20039;-65
2022/05/06 09:16:44;;;;;;;1.77;0.90;;;14.10;92.20;;;;;;5041690;28;20033;-70
2022/05/06 09:19:21;;;;;;;3.70;1.27;;;14.00;91.30;;;;;;5040266;28;20091;-69
2022/05/06 09:22:13;;;;;;;5.30;1.25;;;13.80;91.10;;;;;;5039551;28;20084;-71
2022/05/06 09:24:42;;;;;;;2.38;1.02;;;13.80;90.30;;;;;;5038818;28;20032;-70
2022/05/06 09:27:10;;;;;;;6.68;1.58;;;13.70;90.10;;;;;;5039100;28;21626;-74
2022/05/06 09:29:54;;;;;;;3.55;1.48;;;13.70;90.10;;;;;;5036033;28;20168;-68
2022/05/06 09:32:29;;;;;;;4.50;2.25;;;13.80;90.10;;;;;;5035050;28;20028;-69
2022/05/06 09:35:13;;;;;;;4.93;2.88;;;13.60;90.60;;;;;;5033984;28;20032;-68
2022/05/06 09:37:46;;;;;;;4.20;1.25;;;13.50;91.20;;;;;;5034587;28;20052;-68
2022/05/06 09:40:14;;;;;;;;;;;13.30;91.70;;;;;;5033677;28;20029;-69
2022/05/06 09:43:01;;;;;;;10.57;2.78;;;13.40;91.50;;;;;;5033972;28;19913;-68
2022/05/06 09:45:43;;;;;;;9.82;4.00;;;13.20;92.00;;;;;;5033439;28;20309;-75
2022/05/06 09:48:13;;;;;;;9.03;2.50;;;13.30;92.30;;;;;;5033804;28;20041;-66
2022/05/06 09:50:49;;;;;;;11.32;2.78;;;13.30;92.10;;;;;;5034125;28;20031;-68
2022/05/06 09:53:18;;;;;;;6.10;1.45;;;13.20;93.00;;;;;;5033416;28;20025;-67
2022/05/06 09:55:47;;;;;;;8.60;3.67;;;13.10;93.30;;;;;;5007013;28;20040;-66
2022/05/06 09:58:16;;;;;;;6.88;1.45;;;13.00;93.90;;;;;;5033435;28;20079;-68
2022/05/06 10:00:44;;;;;;;4.95;1.20;;;12.80;94.90;;;;;;5033826;28;20032;-77
2022/05/06 10:03:11;;;;;;;7.35;1.63;;;12.60;95.20;;;;;;5035549;28;20087;-71
2022/05/06 10:05:39;;;;;;;5.88;1.98;;;12.60;96.00;;;;;;5036370;28;20028;-76
2022/05/06 10:08:23;;;;;;;5.38;3.35;;;12.40;97.90;;;;;;5034890;28;20116;-78
2022/05/06 10:11:02;;;;;;;7.75;2.45;;;12.20;98.80;;;;;;5016989;28;20131;-72
2022/05/06 10:13:35;;;;;;;4.40;1.77;;;12.00;99.70;;;;;;5037052;28;20484;-71
2022/05/06 10:16:03;;;;;;;4.15;1.40;;;11.90;99.80;;;;;;5033653;28;20398;-78
2022/05/06 10:18:43;;;;;;;5.60;1.48;;;11.80;99.90;;;;;;5035385;28;20067;-72
2022/05/06 10:21:11;;;;;;;10.93;4.93;;;11.80;99.90;;;;;;5036791;28;20611;-70
2022/05/06 10:23:56;;;;;;;3.42;1.90;;;11.70;99.90;;;;;;5034588;28;20218;-70
2022/05/06 10:26:35;;;;;;;2.75;1.10;;;11.80;99.90;;;;;;5035720;28;20021;-70
2022/05/06 10:35:02;;;;;;;5.30;2.47;;;12.00;99.90;;;;;;4996147;28;20117;-73
2022/05/06 10:37:47;;;;;;;5.28;1.88;;;12.10;99.40;;;;;;5053230;22;20557;-68
2022/05/06 10:40:28;;;;;;;12.88;5.88;;;12.20;99.50;;;;;;5057378;28;20828;-70
2022/05/06 10:42:55;;;;;;;8.15;2.30;;;12.20;99.20;;;;;;5055061;28;20016;-68
2022/05/06 10:45:31;;;;;;;5.30;1.42;;;12.10;99.50;;;;;;5057513;28;20111;-67
2022/05/06 10:47:58;;;;;;;3.35;1.50;;;12.00;99.90;;;;;;5040736;28;20486;-71
2022/05/06 10:50:29;;;;;;;8.63;1.52;;;11.90;99.90;;;;;;5060292;28;20048;-69
2022/05/06 10:53:00;;;;;;;6.10;1.40;;;11.70;99.90;;;;;;5059348;28;20052;-70
2022/05/06 10:55:28;;;;;;;4.95;1.40;;;11.40;99.90;;;;;;5058082;28;20598;-69
2022/05/06 10:57:57;;;;;;;8.27;1.27;;;11.20;99.90;;;;;;5059693;28;20031;-69
2022/05/06 11:00:27;;;;;;;3.10;1.25;;;11.10;99.90;;;;;;5059111;28;20029;-70
2022/05/06 11:02:54;;;;;;;7.68;1.63;;;10.90;99.90;;;;;;5060819;28;20331;-66
2022/05/06 11:05:24;;;;;;;8.50;1.85;;;10.80;99.90;;;;;;5059946;28;20079;-73
2022/05/06 11:07:55;;;;;;;7.68;1.77;;;10.70;99.90;;;;;;5059469;28;20334;-70
2022/05/06 11:10:28;;;;;;;7.57;1.55;;;10.50;99.90;;;;;;5059345;28;20017;-72
2022/05/06 11:12:59;;;;;;;7.05;1.65;;;10.50;99.90;;;;;;5058674;28;20052;-72
2022/05/06 11:15:32;;;;;;;14.98;2.58;;;10.50;99.90;;;;;;5060346;28;20037;-70
2022/05/06 11:18:04;;;;;;;;;;;10.60;99.90;;;;;;5062586;28;20499;-71
2022/05/06 11:20:38;;;;;;;5.45;1.85;;;10.70;99.90;;;;;;5059353;28;20331;-66
2022/05/06 11:23:05;;;;;;;7.30;2.13;;;10.70;99.90;;;;;;5060093;28;20032;-68
2022/05/06 11:25:46;;;;;;;5.97;1.75;;;10.70;99.90;;;;;;5044625;28;20396;-69
2022/05/06 11:28:20;;;;;;;5.10;1.67;;;10.60;99.90;;;;;;5059755;28;20060;-66
2022/05/06 11:30:52;;;;;;;5.03;1.83;;;10.50;99.90;;;;;;5061323;28;20048;-70
2022/05/06 11:33:27;;;;;;;5.05;1.60;;;10.40;99.90;;;;;;5061052;28;20079;-73
2022/05/06 11:36:03;;;;;;;2.80;1.27;;;10.40;99.90;;;;;;5058065;28;20040;-70
2022/05/06 11:38:38;;;;;;;2.63;1.52;;;10.30;99.90;;;;;;5059247;28;20054;-70
2022/05/06 11:41:10;;;;;;;7.93;1.42;;;10.40;99.90;;;;;;5059896;28;20036;-71
2022/05/06 11:43:38;;;;;;;4.20;1.38;;;10.50;99.90;;;;;;5062477;28;20032;-68
2022/05/06 11:48:50;;;;;;;2.78;1.23;;;10.30;99.90;;;;;;5065306;28;20165;-68
2022/05/06 11:51:38;;;;;;;2.20;1.15;;;10.30;99.90;;;;;;5063511;28;20036;-73
2022/05/06 11:54:06;;;;;;;4.47;1.25;;;10.20;99.90;;;;;;5064981;28;20525;-70
2022/05/06 11:56:34;;;;;;;2.50;1.10;;;10.20;99.90;;;;;;5061815;28;20421;-72
2022/05/06 11:59:02;;;;;;;3.45;1.30;;;10.10;99.90;;;;;;5062048;28;20033;-70
2022/05/06 12:01:30;;;;;;;2.67;1.25;;;10.00;99.90;;;;;;5064243;28;20021;-69
2022/05/06 12:04:05;;;;;;;1.55;0.95;;;9.90;99.90;;;;;;5063275;28;20490;-73
2022/05/06 12:06:33;;;;;;;3.72;1.42;;;9.80;99.90;;;;;;5063548;28;20392;-76
2022/05/06 12:09:13;;;;;;;2.53;1.10;;;9.70;99.90;;;;;;5064364;28;20465;-73
2022/05/06 12:11:41;;;;;;;4.03;1.27;;;9.60;99.90;;;;;;5062432;28;20028;-71
2022/05/06 12:14:21;;;;;;;4.97;1.30;;;9.60;99.90;;;;;;5062871;28;20056;-70
2022/05/06 12:16:58;;;;;;;7.22;1.63;;;9.50;99.90;;;;;;5062674;28;20025;-74
2022/05/06 12:19:39;;;;;;;4.60;1.38;;;9.40;99.90;;;;;;5061993;28;20033;-73
2022/05/06 12:22:31;;;;;;;10.57;2.00;;;9.40;99.90;;;;;;5063341;28;20043;-74
2022/05/06 12:25:04;;;;;;;10.27;2.85;;;9.40;99.90;;;;;;5062595;28;20040;-68
2022/05/06 12:27:35;;;;;;;15.60;2.38;;;9.40;99.90;;;;;;5059911;28;20307;-71
2022/05/06 12:30:02;;;;;;;6.20;1.70;;;9.50;99.90;;;;;;5060182;28;20391;-71
2022/05/06 12:32:30;;;;;;;5.88;1.77;;;9.60;99.90;;;;;;5062648;28;20233;-70
2022/05/06 12:35:08;;;;;;;4.45;1.63;;;9.60;99.90;;;;;;5058632;28;20028;-70
2022/05/06 12:37:36;;;;;;;5.13;2.00;;;9.50;99.90;;;;;;5060357;28;20675;-75
2022/05/06 12:40:04;;;;;;;7.82;1.42;;;9.40;99.90;;;;;;5061879;28;20421;-77
2022/05/06 12:42:31;;;;;;;6.80;2.08;;;9.40;99.90;;;;;;5062392;28;20035;-76
2022/05/06 12:45:04;;;;;;;4.10;1.55;;;9.30;99.90;;;;;;5060693;28;20032;-73
2022/05/06 12:50:16;;;;;;;2.70;1.55;;;9.20;99.90;;;;;;5062299;28;20147;-68
2022/05/06 12:52:43;;;;;;;5.68;1.33;;;9.10;99.90;;;;;;5060330;28;20025;-77
2022/05/06 12:55:10;;;;;;;5.25;1.83;;;9.00;99.90;;;;;;5062826;28;20475;-72
2022/05/06 12:57:37;;;;;;;3.65;1.38;;;8.90;99.90;;;;;;5060317;28;20062;-70
2022/05/06 13:00:05;;;;;;;4.10;1.30;;;8.90;99.90;;;;;;5063278;28;20147;-77
2022/05/06 13:02:32;;;;;;;2.33;1.35;;;8.90;99.90;;;;;;5061958;28;20107;-76
2022/05/06 13:04:59;;;;;;;2.83;1.40;;;9.00;99.90;;;;;;5064004;28;20020;-72
2022/05/06 13:07:26;;;;;;;3.28;1.50;;;9.20;99.90;;;;;;5060230;28;20542;-69
2022/05/06 13:09:53;;;;;;;3.17;1.38;;;9.20;99.90;;;;;;5060579;28;20548;-74
2022/05/06 13:12:20;;;;;;;3.00;1.88;;;9.20;99.90;;;;;;5060645;28;20055;-75
2022/05/06 13:14:47;;;;;;;4.57;1.70;;;9.30;99.90;;;;;;5062689;28;20033;-70
2022/05/06 13:17:14;;;;;;;3.10;1.55;;;9.20;99.90;;;;;;5061352;28;20025;-76
2022/05/06 13:19:41;;;;;;;4.95;1.80;;;9.10;99.90;;;;;;5062806;28;20423;-76
2022/05/06 13:22:09;;;;;;;4.25;1.30;;;9.10;99.90;;;;;;5062289;28;20052;-74
2022/05/06 13:24:36;;;;;;;2.72;1.52;;;9.00;99.90;;;;;;5062427;28;20402;-70
2022/05/06 13:27:03;;;;;;;4.63;1.45;;;9.00;99.90;;;;;;5060054;28;20032;-71
2022/05/06 13:29:31;;;;;;;1.90;1.15;;;9.00;99.90;;;;;;5060325;28;20139;-73
2022/05/06 13:31:58;;;;;;;3.53;1.27;;;8.90;99.90;;;;;;5043614;28;20268;-74
2022/05/06 13:34:25;;;;;;;1.48;1.08;;;8.80;99.90;;;;;;5060670;28;20021;-74
2022/05/06 13:36:52;;;;;;;0.95;0.75;;;8.60;99.90;;;;;;5063169;28;20048;-75
2022/05/06 13:39:19;;;;;;;2.47;1.00;;;8.50;99.90;;;;;;5047875;28;20487;-69
2022/05/06 13:41:46;;;;;;;2.33;0.88;;;8.40;99.90;;;;;;5066578;28;20039;-76
2022/05/06 13:44:12;;;;;;;2.78;1.00;;;8.30;99.90;;;;;;5045548;28;20016;-69
2022/05/06 13:46:39;;;;;;;2.30;1.10;;;8.30;99.90;;;;;;5066674;28;20036;-74
2022/05/06 13:49:06;;;;;;;3.38;1.00;;;8.30;99.90;;;;;;5063674;28;20072;-74